Strona główna
METAR-TAF:

METAR-TAF

Lotnisko :

Port lotniczy Lagos

Lagos, Nigeria

Szerokość geograficzna: 06-35N, Długość geograficzna: 003-20E, wysokość: 40 m

Aktualna obserwacja pogody

Raport powstał 1 godzina i 16 minut temu, godzina 21:00 UTC
Wiatr 2 kt z kierunków zmiennych
Temperatura 27°C
Wilgotność 89%
Ciśnienie 1013 hPa
Widzialność: 4000 m
zmętnienie

METAR: DNMM 292100Z VRB02KT 4000 HZ NSC 27/25 Q1013 NOSIG

czas: 23:16 (22:16 UTC)

Prognoza

Raport powstał 11 godziny i 16 minut temu, godzina 11:00 UTC
Prognoza ważna od 29 godzina 12 UTC do 30 godzina 18 UTC
Wiatr 10 kt od północno-północny wschód
Widzialność: 5000 m
zmętnienie
Stopniowe zmiany
od 29 godzina 15 UTC do 29 godzina 17 UTC
Wiatr 4 kt od południowo-południowy zachód
Przejściowo
od 30 godzina 05 UTC do 30 godzina 07 UTC
Widzialność: 1500 m

TAF: DNMM 291100Z 2912/3018 02010KT 5000 HZ NSC BECMG 2915/2917 21004KT TEMPO 3005/3007 1500

Obserwacja i prognoza pogody dla ponad 4000 lotnisk (raport METAR i TAF).

Dostępne stacje oznaczono żółtymi i czerwonymi punktami na mapie.

Najedź kursorem aby zobaczyć nazwę stacji.

Kliknij aby zobaczyć obserwacje i prognozy pogody.

Aby zmienić mapę: kliknij na zielony przycisk z czarnym krzyżykiem, aby powiększyć; na zielony przycisk z myślnikiem, aby pomniejszyć; na zielone strzałki, aby przejść do map sąsiednich.


METAR-TAF: